sensor_id;sensor_type;location;lat;lon;timestamp;P1;durP1;ratioP1;P2;durP2;ratioP2
57233;SDS011;43090;52.604;13.318;2023-12-20T00:00:20;9.57;;;5.95;;
57233;SDS011;43090;52.604;13.318;2023-12-20T00:02:52;10.27;;;6.63;;
57233;SDS011;43090;52.604;13.318;2023-12-20T00:05:26;10.80;;;6.70;;
57233;SDS011;43090;52.604;13.318;2023-12-20T00:08:02;9.63;;;5.97;;
57233;SDS011;43090;52.604;13.318;2023-12-20T00:10:31;11.23;;;7.22;;
57233;SDS011;43090;52.604;13.318;2023-12-20T00:13:02;11.05;;;6.85;;
57233;SDS011;43090;52.604;13.318;2023-12-20T00:15:38;13.20;;;6.97;;
57233;SDS011;43090;52.604;13.318;2023-12-20T00:18:12;12.38;;;7.38;;
57233;SDS011;43090;52.604;13.318;2023-12-20T00:20:40;11.00;;;7.18;;
57233;SDS011;43090;52.604;13.318;2023-12-20T00:23:07;9.52;;;6.60;;
57233;SDS011;43090;52.604;13.318;2023-12-20T00:25:37;8.68;;;6.05;;
57233;SDS011;43090;52.604;13.318;2023-12-20T00:28:05;9.23;;;5.45;;
57233;SDS011;43090;52.604;13.318;2023-12-20T00:30:47;13.43;;;6.57;;
57233;SDS011;43090;52.604;13.318;2023-12-20T00:33:14;9.50;;;5.88;;
57233;SDS011;43090;52.604;13.318;2023-12-20T00:35:44;9.85;;;6.00;;
57233;SDS011;43090;52.604;13.318;2023-12-20T00:38:20;9.82;;;6.18;;
57233;SDS011;43090;52.604;13.318;2023-12-20T00:40:55;14.90;;;7.63;;
57233;SDS011;43090;52.604;13.318;2023-12-20T00:43:25;9.77;;;6.15;;
57233;SDS011;43090;52.604;13.318;2023-12-20T00:45:52;9.32;;;6.07;;
57233;SDS011;43090;52.604;13.318;2023-12-20T00:48:22;9.85;;;6.05;;
57233;SDS011;43090;52.604;13.318;2023-12-20T00:50:54;11.05;;;6.65;;
57233;SDS011;43090;52.604;13.318;2023-12-20T00:53:58;11.48;;;6.60;;
57233;SDS011;43090;52.604;13.318;2023-12-20T00:56:43;11.48;;;7.07;;
57233;SDS011;43090;52.604;13.318;2023-12-20T00:59:16;11.82;;;6.97;;
57233;SDS011;43090;52.604;13.318;2023-12-20T01:01:47;12.02;;;6.78;;
57233;SDS011;43090;52.604;13.318;2023-12-20T01:04:19;11.00;;;6.82;;
57233;SDS011;43090;52.604;13.318;2023-12-20T01:06:55;11.10;;;7.57;;
57233;SDS011;43090;52.604;13.318;2023-12-20T01:09:28;12.48;;;6.65;;
57233;SDS011;43090;52.604;13.318;2023-12-20T01:12:07;11.98;;;7.45;;
57233;SDS011;43090;52.604;13.318;2023-12-20T01:14:37;10.60;;;6.22;;
57233;SDS011;43090;52.604;13.318;2023-12-20T01:17:06;9.93;;;6.22;;
57233;SDS011;43090;52.604;13.318;2023-12-20T01:19:33;9.25;;;6.03;;
57233;SDS011;43090;52.604;13.318;2023-12-20T01:22:00;9.73;;;6.50;;
57233;SDS011;43090;52.604;13.318;2023-12-20T01:26:59;10.25;;;6.05;;
57233;SDS011;43090;52.604;13.318;2023-12-20T01:31:53;7.70;;;5.35;;
57233;SDS011;43090;52.604;13.318;2023-12-20T01:34:20;9.68;;;5.28;;
57233;SDS011;43090;52.604;13.318;2023-12-20T01:36:47;7.65;;;4.60;;
57233;SDS011;43090;52.604;13.318;2023-12-20T01:39:14;6.47;;;3.85;;
57233;SDS011;43090;52.604;13.318;2023-12-20T01:41:53;6.18;;;4.03;;
57233;SDS011;43090;52.604;13.318;2023-12-20T01:44:20;5.80;;;3.92;;
57233;SDS011;43090;52.604;13.318;2023-12-20T01:46:47;7.25;;;4.00;;
57233;SDS011;43090;52.604;13.318;2023-12-20T01:49:14;6.90;;;4.20;;
57233;SDS011;43090;52.604;13.318;2023-12-20T01:51:42;6.57;;;4.13;;
57233;SDS011;43090;52.604;13.318;2023-12-20T01:54:09;7.50;;;3.75;;
57233;SDS011;43090;52.604;13.318;2023-12-20T01:56:37;5.60;;;3.63;;
57233;SDS011;43090;52.604;13.318;2023-12-20T01:59:04;8.25;;;3.53;;
57233;SDS011;43090;52.604;13.318;2023-12-20T02:01:33;5.20;;;3.10;;
57233;SDS011;43090;52.604;13.318;2023-12-20T02:04:00;7.65;;;3.08;;
57233;SDS011;43090;52.604;13.318;2023-12-20T02:06:30;4.53;;;3.00;;
57233;SDS011;43090;52.604;13.318;2023-12-20T02:09:00;6.28;;;2.88;;
57233;SDS011;43090;52.604;13.318;2023-12-20T02:11:27;5.03;;;3.20;;
57233;SDS011;43090;52.604;13.318;2023-12-20T02:13:58;9.52;;;2.90;;
57233;SDS011;43090;52.604;13.318;2023-12-20T02:16:27;5.50;;;2.28;;
57233;SDS011;43090;52.604;13.318;2023-12-20T02:18:57;11.20;;;2.50;;
57233;SDS011;43090;52.604;13.318;2023-12-20T02:21:25;4.18;;;3.00;;
57233;SDS011;43090;52.604;13.318;2023-12-20T02:23:52;5.53;;;2.00;;
57233;SDS011;43090;52.604;13.318;2023-12-20T02:28:45;6.22;;;2.10;;
57233;SDS011;43090;52.604;13.318;2023-12-20T02:46:24;11.75;;;1.60;;
57233;SDS011;43090;52.604;13.318;2023-12-20T02:48:54;3.83;;;2.13;;
57233;SDS011;43090;52.604;13.318;2023-12-20T02:51:27;4.78;;;2.40;;
57233;SDS011;43090;52.604;13.318;2023-12-20T02:53:57;5.85;;;2.13;;
57233;SDS011;43090;52.604;13.318;2023-12-20T02:56:40;9.80;;;2.42;;
57233;SDS011;43090;52.604;13.318;2023-12-20T02:59:26;4.95;;;2.10;;
57233;SDS011;43090;52.604;13.318;2023-12-20T03:01:53;9.77;;;2.13;;
57233;SDS011;43090;52.604;13.318;2023-12-20T03:04:20;5.55;;;2.10;;
57233;SDS011;43090;52.604;13.318;2023-12-20T03:07:01;4.43;;;2.00;;
57233;SDS011;43090;52.604;13.318;2023-12-20T03:10:16;6.50;;;1.85;;
57233;SDS011;43090;52.604;13.318;2023-12-20T03:12:51;8.50;;;2.40;;
57233;SDS011;43090;52.604;13.318;2023-12-20T03:15:26;6.03;;;1.80;;
57233;SDS011;43090;52.604;13.318;2023-12-20T03:17:52;8.63;;;2.10;;
57233;SDS011;43090;52.604;13.318;2023-12-20T03:22:52;4.82;;;2.05;;
57233;SDS011;43090;52.604;13.318;2023-12-20T03:25:37;7.25;;;1.50;;
57233;SDS011;43090;52.604;13.318;2023-12-20T03:28:07;5.15;;;1.40;;
57233;SDS011;43090;52.604;13.318;2023-12-20T03:30:41;8.52;;;2.00;;
57233;SDS011;43090;52.604;13.318;2023-12-20T03:33:20;6.47;;;1.58;;
57233;SDS011;43090;52.604;13.318;2023-12-20T03:35:49;13.65;;;1.80;;
57233;SDS011;43090;52.604;13.318;2023-12-20T03:38:16;7.63;;;1.65;;
57233;SDS011;43090;52.604;13.318;2023-12-20T03:40:43;11.50;;;2.00;;
57233;SDS011;43090;52.604;13.318;2023-12-20T03:43:27;14.40;;;2.08;;
57233;SDS011;43090;52.604;13.318;2023-12-20T03:46:06;7.35;;;2.20;;
57233;SDS011;43090;52.604;13.318;2023-12-20T03:55:43;8.00;;;2.17;;
57233;SDS011;43090;52.604;13.318;2023-12-20T03:58:49;7.43;;;1.90;;
57233;SDS011;43090;52.604;13.318;2023-12-20T04:01:18;13.57;;;2.20;;
57233;SDS011;43090;52.604;13.318;2023-12-20T04:04:05;7.20;;;2.17;;
57233;SDS011;43090;52.604;13.318;2023-12-20T04:06:56;11.07;;;2.00;;
57233;SDS011;43090;52.604;13.318;2023-12-20T04:09:44;9.02;;;2.15;;
57233;SDS011;43090;52.604;13.318;2023-12-20T04:12:37;8.55;;;2.13;;
57233;SDS011;43090;52.604;13.318;2023-12-20T04:15:07;19.98;;;3.08;;
57233;SDS011;43090;52.604;13.318;2023-12-20T04:17:42;10.45;;;2.10;;
57233;SDS011;43090;52.604;13.318;2023-12-20T04:20:26;7.45;;;2.00;;
57233;SDS011;43090;52.604;13.318;2023-12-20T04:27:02;5.15;;;1.60;;
57233;SDS011;43090;52.604;13.318;2023-12-20T04:29:55;13.82;;;2.50;;
57233;SDS011;43090;52.604;13.318;2023-12-20T04:32:32;7.55;;;1.88;;
57233;SDS011;43090;52.604;13.318;2023-12-20T04:35:02;8.75;;;1.45;;
57233;SDS011;43090;52.604;13.318;2023-12-20T04:37:56;6.28;;;1.90;;
57233;SDS011;43090;52.604;13.318;2023-12-20T04:40:29;11.25;;;2.13;;
57233;SDS011;43090;52.604;13.318;2023-12-20T04:43:32;12.15;;;1.90;;
57233;SDS011;43090;52.604;13.318;2023-12-20T04:46:18;13.52;;;1.85;;
57233;SDS011;43090;52.604;13.318;2023-12-20T04:49:11;7.68;;;2.90;;
57233;SDS011;43090;52.604;13.318;2023-12-20T04:51:57;7.32;;;1.85;;
57233;SDS011;43090;52.604;13.318;2023-12-20T04:54:39;8.77;;;1.83;;
57233;SDS011;43090;52.604;13.318;2023-12-20T05:05:58;6.65;;;1.60;;
57233;SDS011;43090;52.604;13.318;2023-12-20T05:08:27;19.23;;;3.63;;
57233;SDS011;43090;52.604;13.318;2023-12-20T05:10:59;9.80;;;1.77;;
57233;SDS011;43090;52.604;13.318;2023-12-20T05:16:45;17.92;;;3.17;;
57233;SDS011;43090;52.604;13.318;2023-12-20T05:19:28;11.68;;;2.17;;
57233;SDS011;43090;52.604;13.318;2023-12-20T05:22:02;12.45;;;2.15;;
57233;SDS011;43090;52.604;13.318;2023-12-20T05:24:49;14.00;;;2.40;;
57233;SDS011;43090;52.604;13.318;2023-12-20T05:28:26;19.17;;;2.67;;
57233;SDS011;43090;52.604;13.318;2023-12-20T05:31:02;13.52;;;2.20;;
57233;SDS011;43090;52.604;13.318;2023-12-20T05:33:54;15.50;;;3.03;;
57233;SDS011;43090;52.604;13.318;2023-12-20T05:36:38;16.17;;;2.70;;
57233;SDS011;43090;52.604;13.318;2023-12-20T05:39:28;13.68;;;2.42;;
57233;SDS011;43090;52.604;13.318;2023-12-20T05:41:55;14.10;;;2.72;;
57233;SDS011;43090;52.604;13.318;2023-12-20T05:44:32;19.58;;;2.05;;
57233;SDS011;43090;52.604;13.318;2023-12-20T05:47:26;5.53;;;1.88;;
57233;SDS011;43090;52.604;13.318;2023-12-20T05:49:57;13.20;;;2.33;;
57233;SDS011;43090;52.604;13.318;2023-12-20T05:52:24;19.38;;;2.30;;
57233;SDS011;43090;52.604;13.318;2023-12-20T05:55:02;8.88;;;2.92;;
57233;SDS011;43090;52.604;13.318;2023-12-20T05:58:07;9.93;;;2.30;;
57233;SDS011;43090;52.604;13.318;2023-12-20T06:00:43;10.75;;;2.05;;
57233;SDS011;43090;52.604;13.318;2023-12-20T06:03:19;12.02;;;2.15;;
57233;SDS011;43090;52.604;13.318;2023-12-20T06:06:23;12.05;;;2.00;;
57233;SDS011;43090;52.604;13.318;2023-12-20T06:09:10;15.48;;;2.70;;
57233;SDS011;43090;52.604;13.318;2023-12-20T06:11:38;8.57;;;1.90;;
57233;SDS011;43090;52.604;13.318;2023-12-20T06:14:05;17.60;;;2.65;;
57233;SDS011;43090;52.604;13.318;2023-12-20T06:19:18;11.77;;;2.25;;
57233;SDS011;43090;52.604;13.318;2023-12-20T06:21:45;15.90;;;2.53;;
57233;SDS011;43090;52.604;13.318;2023-12-20T06:24:15;22.75;;;2.33;;
57233;SDS011;43090;52.604;13.318;2023-12-20T06:26:42;15.10;;;2.05;;
57233;SDS011;43090;52.604;13.318;2023-12-20T06:29:23;8.63;;;2.30;;
57233;SDS011;43090;52.604;13.318;2023-12-20T06:31:55;13.25;;;1.98;;
57233;SDS011;43090;52.604;13.318;2023-12-20T06:34:35;17.77;;;4.03;;
57233;SDS011;43090;52.604;13.318;2023-12-20T06:37:11;12.50;;;2.30;;
57233;SDS011;43090;52.604;13.318;2023-12-20T06:39:39;13.38;;;2.88;;
57233;SDS011;43090;52.604;13.318;2023-12-20T06:49:23;16.30;;;2.70;;
57233;SDS011;43090;52.604;13.318;2023-12-20T06:51:53;20.40;;;2.60;;
57233;SDS011;43090;52.604;13.318;2023-12-20T08:16:42;14.32;;;2.15;;
57233;SDS011;43090;52.604;13.318;2023-12-20T08:19:15;22.75;;;3.33;;
57233;SDS011;43090;52.604;13.318;2023-12-20T08:21:52;14.35;;;2.28;;
57233;SDS011;43090;52.604;13.318;2023-12-20T08:39:30;18.08;;;3.05;;
57233;SDS011;43090;52.604;13.318;2023-12-20T08:50:57;9.38;;;2.97;;
57233;SDS011;43090;52.604;13.318;2023-12-20T08:53:54;8.68;;;2.00;;
57233;SDS011;43090;52.604;13.318;2023-12-20T09:00:33;15.05;;;2.17;;
57233;SDS011;43090;52.604;13.318;2023-12-20T09:03:17;11.60;;;2.53;;
57233;SDS011;43090;52.604;13.318;2023-12-20T09:09:04;8.85;;;2.50;;
57233;SDS011;43090;52.604;13.318;2023-12-20T09:12:23;10.10;;;2.33;;
57233;SDS011;43090;52.604;13.318;2023-12-20T09:19:07;12.13;;;2.50;;
57233;SDS011;43090;52.604;13.318;2023-12-20T09:21:47;8.48;;;2.05;;
57233;SDS011;43090;52.604;13.318;2023-12-20T09:24:24;10.40;;;2.53;;
57233;SDS011;43090;52.604;13.318;2023-12-20T09:26:55;13.85;;;2.72;;
57233;SDS011;43090;52.604;13.318;2023-12-20T09:29:25;12.55;;;2.33;;
57233;SDS011;43090;52.604;13.318;2023-12-20T09:31:52;22.38;;;3.00;;
57233;SDS011;43090;52.604;13.318;2023-12-20T09:37:36;14.50;;;2.38;;
57233;SDS011;43090;52.604;13.318;2023-12-20T09:40:03;9.43;;;2.13;;
57233;SDS011;43090;52.604;13.318;2023-12-20T09:45:46;19.08;;;2.45;;
57233;SDS011;43090;52.604;13.318;2023-12-20T09:52:25;12.30;;;2.10;;
57233;SDS011;43090;52.604;13.318;2023-12-20T09:55:11;14.13;;;2.20;;
57233;SDS011;43090;52.604;13.318;2023-12-20T09:58:36;14.48;;;2.65;;
57233;SDS011;43090;52.604;13.318;2023-12-20T10:01:12;9.07;;;2.15;;
57233;SDS011;43090;52.604;13.318;2023-12-20T10:03:55;16.23;;;2.55;;
57233;SDS011;43090;52.604;13.318;2023-12-20T10:07:01;24.42;;;2.25;;
57233;SDS011;43090;52.604;13.318;2023-12-20T10:13:15;23.67;;;3.08;;
57233;SDS011;43090;52.604;13.318;2023-12-20T10:23:42;21.10;;;2.30;;
57233;SDS011;43090;52.604;13.318;2023-12-20T11:00:10;17.60;;;2.30;;
57233;SDS011;43090;52.604;13.318;2023-12-20T11:10:30;27.30;;;3.00;;
57233;SDS011;43090;52.604;13.318;2023-12-20T11:14:00;26.30;;;4.70;;
57233;SDS011;43090;52.604;13.318;2023-12-20T11:16:47;15.50;;;3.00;;
57233;SDS011;43090;52.604;13.318;2023-12-20T11:24:30;12.73;;;2.70;;
57233;SDS011;43090;52.604;13.318;2023-12-20T11:31:31;14.05;;;2.42;;
57233;SDS011;43090;52.604;13.318;2023-12-20T11:34:44;15.73;;;2.85;;
57233;SDS011;43090;52.604;13.318;2023-12-20T11:37:57;21.88;;;2.65;;
57233;SDS011;43090;52.604;13.318;2023-12-20T11:40:43;22.27;;;3.25;;
57233;SDS011;43090;52.604;13.318;2023-12-20T11:58:47;18.70;;;2.95;;
57233;SDS011;43090;52.604;13.318;2023-12-20T12:13:50;11.68;;;2.35;;
57233;SDS011;43090;52.604;13.318;2023-12-20T12:24:58;21.25;;;3.38;;
57233;SDS011;43090;52.604;13.318;2023-12-20T12:27:50;16.25;;;2.40;;
57233;SDS011;43090;52.604;13.318;2023-12-20T12:31:06;23.75;;;2.78;;
57233;SDS011;43090;52.604;13.318;2023-12-20T12:37:50;26.15;;;3.33;;
57233;SDS011;43090;52.604;13.318;2023-12-20T12:55:55;6.00;;;2.28;;
57233;SDS011;43090;52.604;13.318;2023-12-20T12:58:32;9.23;;;2.33;;
57233;SDS011;43090;52.604;13.318;2023-12-20T13:01:11;11.70;;;2.42;;
57233;SDS011;43090;52.604;13.318;2023-12-20T13:03:44;16.38;;;2.67;;
57233;SDS011;43090;52.604;13.318;2023-12-20T13:06:16;11.02;;;2.88;;
57233;SDS011;43090;52.604;13.318;2023-12-20T13:08:46;9.90;;;3.30;;
57233;SDS011;43090;52.604;13.318;2023-12-20T13:11:25;9.40;;;3.20;;
57233;SDS011;43090;52.604;13.318;2023-12-20T13:14:04;16.95;;;2.95;;
57233;SDS011;43090;52.604;13.318;2023-12-20T13:16:46;10.38;;;2.45;;
57233;SDS011;43090;52.604;13.318;2023-12-20T13:22:53;8.40;;;2.03;;
57233;SDS011;43090;52.604;13.318;2023-12-20T13:25:52;6.72;;;1.83;;
57233;SDS011;43090;52.604;13.318;2023-12-20T13:39:24;14.02;;;1.55;;
57233;SDS011;43090;52.604;13.318;2023-12-20T13:53:52;5.43;;;1.20;;
57233;SDS011;43090;52.604;13.318;2023-12-20T14:03:43;4.22;;;0.70;;
57233;SDS011;43090;52.604;13.318;2023-12-20T14:06:20;2.58;;;0.80;;
57233;SDS011;43090;52.604;13.318;2023-12-20T14:09:33;1.38;;;0.70;;
57233;SDS011;43090;52.604;13.318;2023-12-20T14:16:47;1.55;;;0.65;;
57233;SDS011;43090;52.604;13.318;2023-12-20T14:19:17;3.33;;;0.60;;
57233;SDS011;43090;52.604;13.318;2023-12-20T14:21:56;3.72;;;0.88;;
57233;SDS011;43090;52.604;13.318;2023-12-20T14:24:32;2.78;;;0.60;;
57233;SDS011;43090;52.604;13.318;2023-12-20T14:27:11;3.75;;;0.80;;
57233;SDS011;43090;52.604;13.318;2023-12-20T14:37:40;2.92;;;0.88;;
57233;SDS011;43090;52.604;13.318;2023-12-20T14:43:49;1.58;;;0.40;;
57233;SDS011;43090;52.604;13.318;2023-12-20T14:50:50;4.72;;;0.68;;
57233;SDS011;43090;52.604;13.318;2023-12-20T15:05:23;2.55;;;0.70;;
57233;SDS011;43090;52.604;13.318;2023-12-20T15:11:39;4.18;;;0.73;;
57233;SDS011;43090;52.604;13.318;2023-12-20T15:28:33;4.75;;;1.02;;
57233;SDS011;43090;52.604;13.318;2023-12-20T15:42:46;8.73;;;1.00;;
57233;SDS011;43090;52.604;13.318;2023-12-20T16:04:36;8.13;;;1.33;;
57233;SDS011;43090;52.604;13.318;2023-12-20T16:10:22;8.20;;;1.17;;
57233;SDS011;43090;52.604;13.318;2023-12-20T16:15:15;6.07;;;1.40;;
57233;SDS011;43090;52.604;13.318;2023-12-20T16:17:45;8.32;;;1.23;;
57233;SDS011;43090;52.604;13.318;2023-12-20T16:20:26;4.00;;;0.73;;
57233;SDS011;43090;52.604;13.318;2023-12-20T16:23:07;6.90;;;1.23;;
57233;SDS011;43090;52.604;13.318;2023-12-20T16:25:36;5.15;;;1.83;;
57233;SDS011;43090;52.604;13.318;2023-12-20T16:28:19;14.88;;;2.38;;
57233;SDS011;43090;52.604;13.318;2023-12-20T16:30:52;6.93;;;1.48;;
57233;SDS011;43090;52.604;13.318;2023-12-20T16:33:25;8.57;;;1.80;;
57233;SDS011;43090;52.604;13.318;2023-12-20T16:36:03;6.47;;;1.40;;
57233;SDS011;43090;52.604;13.318;2023-12-20T16:38:37;3.72;;;1.42;;
57233;SDS011;43090;52.604;13.318;2023-12-20T16:41:09;8.50;;;1.50;;
57233;SDS011;43090;52.604;13.318;2023-12-20T16:43:42;7.38;;;1.30;;
57233;SDS011;43090;52.604;13.318;2023-12-20T16:46:09;7.07;;;1.40;;
57233;SDS011;43090;52.604;13.318;2023-12-20T16:51:02;13.00;;;1.60;;
57233;SDS011;43090;52.604;13.318;2023-12-20T16:53:47;4.07;;;1.08;;
57233;SDS011;43090;52.604;13.318;2023-12-20T16:59:32;7.10;;;1.23;;
57233;SDS011;43090;52.604;13.318;2023-12-20T17:02:02;9.35;;;1.55;;
57233;SDS011;43090;52.604;13.318;2023-12-20T17:04:30;8.30;;;2.05;;
57233;SDS011;43090;52.604;13.318;2023-12-20T17:06:59;12.35;;;1.35;;
57233;SDS011;43090;52.604;13.318;2023-12-20T17:09:31;14.32;;;1.77;;
57233;SDS011;43090;52.604;13.318;2023-12-20T17:12:04;9.27;;;2.72;;
57233;SDS011;43090;52.604;13.318;2023-12-20T17:14:31;12.15;;;1.58;;
57233;SDS011;43090;52.604;13.318;2023-12-20T17:20:53;8.45;;;1.77;;
57233;SDS011;43090;52.604;13.318;2023-12-20T17:23:23;8.48;;;1.88;;
57233;SDS011;43090;52.604;13.318;2023-12-20T17:25:53;5.20;;;1.45;;
57233;SDS011;43090;52.604;13.318;2023-12-20T17:28:20;7.35;;;1.65;;
57233;SDS011;43090;52.604;13.318;2023-12-20T17:33:13;5.35;;;1.65;;
57233;SDS011;43090;52.604;13.318;2023-12-20T17:35:41;13.18;;;1.85;;
57233;SDS011;43090;52.604;13.318;2023-12-20T17:40:35;9.65;;;2.00;;
57233;SDS011;43090;52.604;13.318;2023-12-20T17:43:05;13.82;;;2.13;;
57233;SDS011;43090;52.604;13.318;2023-12-20T17:45:33;15.57;;;2.08;;
57233;SDS011;43090;52.604;13.318;2023-12-20T17:50:26;14.80;;;2.10;;
57233;SDS011;43090;52.604;13.318;2023-12-20T17:53:27;10.45;;;2.72;;
57233;SDS011;43090;52.604;13.318;2023-12-20T17:55:59;15.02;;;2.22;;
57233;SDS011;43090;52.604;13.318;2023-12-20T17:58:26;7.75;;;1.60;;
57233;SDS011;43090;52.604;13.318;2023-12-20T18:03:19;12.55;;;2.15;;
57233;SDS011;43090;52.604;13.318;2023-12-20T18:05:46;10.88;;;1.95;;
57233;SDS011;43090;52.604;13.318;2023-12-20T18:08:15;7.63;;;2.03;;
57233;SDS011;43090;52.604;13.318;2023-12-20T18:13:08;14.52;;;2.63;;
57233;SDS011;43090;52.604;13.318;2023-12-20T18:15:35;13.52;;;2.75;;
57233;SDS011;43090;52.604;13.318;2023-12-20T18:18:02;8.98;;;2.47;;
57233;SDS011;43090;52.604;13.318;2023-12-20T18:20:29;14.00;;;2.13;;
57233;SDS011;43090;52.604;13.318;2023-12-20T18:22:56;16.05;;;2.20;;
57233;SDS011;43090;52.604;13.318;2023-12-20T18:27:49;20.35;;;2.17;;
57233;SDS011;43090;52.604;13.318;2023-12-20T18:32:43;10.02;;;2.20;;
57233;SDS011;43090;52.604;13.318;2023-12-20T18:35:10;9.02;;;2.08;;
57233;SDS011;43090;52.604;13.318;2023-12-20T18:37:37;8.38;;;1.75;;
57233;SDS011;43090;52.604;13.318;2023-12-20T18:40:05;13.25;;;2.50;;
57233;SDS011;43090;52.604;13.318;2023-12-20T18:42:33;15.40;;;2.13;;
57233;SDS011;43090;52.604;13.318;2023-12-20T18:45:00;15.80;;;2.25;;
57233;SDS011;43090;52.604;13.318;2023-12-20T18:47:27;16.50;;;2.45;;
57233;SDS011;43090;52.604;13.318;2023-12-20T18:52:21;17.02;;;2.30;;
57233;SDS011;43090;52.604;13.318;2023-12-20T18:54:49;23.33;;;2.88;;
57233;SDS011;43090;52.604;13.318;2023-12-20T18:57:19;8.00;;;2.35;;
57233;SDS011;43090;52.604;13.318;2023-12-20T18:59:46;18.45;;;3.22;;
57233;SDS011;43090;52.604;13.318;2023-12-20T19:04:53;14.85;;;2.95;;
57233;SDS011;43090;52.604;13.318;2023-12-20T22:08:07;5.40;;;1.30;;
57233;SDS011;43090;52.604;13.318;2023-12-20T22:10:34;9.05;;;1.48;;
57233;SDS011;43090;52.604;13.318;2023-12-20T22:13:05;9.85;;;2.83;;
57233;SDS011;43090;52.604;13.318;2023-12-20T22:15:32;8.07;;;1.13;;
57233;SDS011;43090;52.604;13.318;2023-12-20T22:18:09;13.73;;;1.42;;
57233;SDS011;43090;52.604;13.318;2023-12-20T22:20:39;4.40;;;1.42;;
57233;SDS011;43090;52.604;13.318;2023-12-20T22:23:21;6.72;;;1.98;;
57233;SDS011;43090;52.604;13.318;2023-12-20T22:28:15;9.80;;;1.80;;
57233;SDS011;43090;52.604;13.318;2023-12-20T22:30:42;8.13;;;1.50;;
57233;SDS011;43090;52.604;13.318;2023-12-20T22:33:14;4.35;;;1.25;;
57233;SDS011;43090;52.604;13.318;2023-12-20T22:35:45;11.63;;;1.65;;
57233;SDS011;43090;52.604;13.318;2023-12-20T22:38:32;11.30;;;1.40;;
57233;SDS011;43090;52.604;13.318;2023-12-20T22:41:23;4.25;;;1.20;;
57233;SDS011;43090;52.604;13.318;2023-12-20T22:43:50;6.03;;;1.33;;
57233;SDS011;43090;52.604;13.318;2023-12-20T22:48:44;9.63;;;1.17;;
57233;SDS011;43090;52.604;13.318;2023-12-20T22:51:10;7.13;;;1.50;;
57233;SDS011;43090;52.604;13.318;2023-12-20T22:53:37;5.75;;;1.30;;
57233;SDS011;43090;52.604;13.318;2023-12-20T22:56:04;10.45;;;1.83;;
57233;SDS011;43090;52.604;13.318;2023-12-20T22:58:30;6.00;;;1.48;;
57233;SDS011;43090;52.604;13.318;2023-12-20T23:00:57;6.47;;;1.33;;
57233;SDS011;43090;52.604;13.318;2023-12-20T23:03:24;8.20;;;2.58;;
57233;SDS011;43090;52.604;13.318;2023-12-20T23:05:52;11.23;;;1.65;;
57233;SDS011;43090;52.604;13.318;2023-12-20T23:10:45;5.53;;;1.15;;
57233;SDS011;43090;52.604;13.318;2023-12-20T23:13:24;6.13;;;0.98;;
57233;SDS011;43090;52.604;13.318;2023-12-20T23:16:00;3.45;;;1.20;;
57233;SDS011;43090;52.604;13.318;2023-12-20T23:20:53;4.93;;;1.02;;
57233;SDS011;43090;52.604;13.318;2023-12-20T23:25:46;8.20;;;1.75;;
57233;SDS011;43090;52.604;13.318;2023-12-20T23:28:13;9.48;;;1.40;;
57233;SDS011;43090;52.604;13.318;2023-12-20T23:33:06;4.72;;;1.70;;
57233;SDS011;43090;52.604;13.318;2023-12-20T23:35:33;8.85;;;1.42;;
57233;SDS011;43090;52.604;13.318;2023-12-20T23:38:00;4.45;;;1.27;;
57233;SDS011;43090;52.604;13.318;2023-12-20T23:40:28;11.35;;;1.35;;
57233;SDS011;43090;52.604;13.318;2023-12-20T23:42:57;5.93;;;1.40;;
57233;SDS011;43090;52.604;13.318;2023-12-20T23:45:24;8.30;;;1.75;;
57233;SDS011;43090;52.604;13.318;2023-12-20T23:47:51;5.25;;;1.50;;
57233;SDS011;43090;52.604;13.318;2023-12-20T23:50:17;9.13;;;2.20;;
57233;SDS011;43090;52.604;13.318;2023-12-20T23:55:11;6.60;;;1.73;;
